Flight Track Log - Related Links

Times and Time Zones

All times are in EST time to prevent confusion due to time zone crossing. See the FIN666 flight status page for this flight to view local times or setup timezone preferences in your user account.


Time Position Orientation Groundspeed Altitude Reporting Facility
EST Latitude Longitude Course Direction KTS MPH feet Rate Location/Type
Tue 07:23:00 AM 55.8520 13.1400 49° Northeast  Level Estimated
Tue 07:24:00 AM 55.9296 13.3027 50° Northeast  Level Estimated
Tue 07:25:00 AM 56.0070 13.4660 50° Northeast  Level Estimated
Tue 07:26:00 AM 56.0842 13.6299 50° Northeast  Level Estimated
Tue 07:27:00 AM 56.1648 13.8023 50° Northeast  Level Estimated
Tue 07:28:00 AM 56.2451 13.9753 50° Northeast  Level Estimated
Tue 07:29:00 AM 56.3252 14.1491 50° Northeast  Level Estimated
Tue 07:30:00 AM 56.4050 14.3237 50° Northeast  Level Estimated
Tue 07:31:00 AM 56.4846 14.4989 51° Northeast  Level Estimated
Tue 07:32:00 AM 56.5640 14.6749 51° Northeast  Level Estimated
Tue 07:33:00 AM 56.6431 14.8516 51° Northeast  Level Estimated
Tue 07:34:00 AM 56.7219 15.0291 51° Northeast  Level Estimated
Tue 07:35:00 AM 56.8005 15.2073 51° Northeast  Level Estimated
Tue 07:36:00 AM 56.8789 15.3863 51° Northeast  Level Estimated
Tue 07:37:00 AM 56.9569 15.5660 51° Northeast  Level Estimated
Tue 07:38:00 AM 57.0348 15.7464 52° Northeast  Level Estimated
Tue 07:39:00 AM 57.1123 15.9277 52° Northeast  Level Estimated
Tue 07:40:00 AM 57.1896 16.1096 52° Northeast  Level Estimated
Tue 07:41:00 AM 57.2667 16.2924 52° Northeast  Level Estimated
Tue 07:42:00 AM 57.3434 16.4759 52° Northeast  Level Estimated
Tue 07:43:00 AM 57.4199 16.6602 52° Northeast  Level Estimated
Tue 07:44:00 AM 57.4962 16.8452 52° Northeast  Level Estimated
Tue 07:45:00 AM 57.5721 17.0310 53° Northeast  Level Estimated
Tue 07:46:00 AM 57.6478 17.2176 53° Northeast  Level Estimated
Tue 07:47:00 AM 57.7232 17.4050 53° Northeast  Level Estimated
Tue 07:48:00 AM 57.7983 17.5931 53° Northeast  Level Estimated
Tue 07:49:00 AM 57.8732 17.7821 53° Northeast  Level Estimated
Tue 07:50:00 AM 57.9478 17.9718 53° Northeast  Level Estimated
Tue 07:51:00 AM 58.0220 18.1623 54° Northeast  Level Estimated
Tue 07:52:00 AM 58.0960 18.3536 54° Northeast  Level Estimated
Tue 07:53:00 AM 58.1697 18.5457 54° Northeast  Level Estimated
Tue 07:54:00 AM 58.2432 18.7386 54° Northeast  Level Estimated
Tue 07:55:00 AM 58.3163 18.9323 54° Northeast  Level Estimated
Tue 07:56:00 AM 58.3891 19.1268 54° Northeast  Level Estimated
Tue 07:57:00 AM 58.4617 19.3221 55° Northeast  Level Estimated
Tue 07:58:00 AM 58.5339 19.5182 55° Northeast  Level Estimated
Tue 07:59:00 AM 58.6059 19.7151 55° Northeast  Level Estimated
Tue 08:00:00 AM 58.6775 19.9128 55° Northeast  Level Estimated
Tue 08:01:00 AM 58.7488 20.1113 55° Northeast  Level Estimated
Tue 08:02:00 AM 58.8199 20.3107 55° Northeast  Level Estimated
Tue 08:03:00 AM 58.8906 20.5109 56° Northeast  Level Estimated
Tue 08:04:00 AM 58.9610 20.7118 56° Northeast  Level Estimated
Tue 08:05:00 AM 59.0311 20.9137 56° Northeast  Level Estimated
Tue 08:06:00 AM 59.1009 21.1163 56° Northeast  Level Estimated
Tue 08:07:00 AM 59.1703 21.3197 56° Northeast  Level Estimated
Tue 08:08:00 AM 59.2395 21.5240 56° Northeast  Level Estimated
Tue 08:09:00 AM 59.3083 21.7291 57° Northeast  Level Estimated
Tue 08:10:00 AM 59.3757 21.9319 57° Northeast  Level Estimated
Tue 08:11:00 AM 59.4429 22.1355 57° Northeast  Level Estimated
Tue 08:12:00 AM 59.5097 22.3398 57° Northeast  Level Estimated
Tue 08:13:00 AM 59.5762 22.5450 57° Northeast  Level Estimated
Tue 08:14:00 AM 59.6424 22.7510 57° Northeast  Level Estimated
Tue 08:15:00 AM 59.7082 22.9578 58° Northeast  Level Estimated
Tue 08:16:00 AM 59.7737 23.1654 58° Northeast  Level Estimated
Tue 08:17:00 AM 59.8389 23.3739 58° Northeast  Level Estimated
Tue 08:18:00 AM 59.9038 23.5831 58° Northeast  Level Estimated
Tue 08:19:00 AM 59.9683 23.7932 58° Northeast  Level Estimated
Tue 08:20:00 AM 60.0325 24.0041 59° Northeast  Level Estimated
Tue 08:21:00 AM 60.0964 24.2158 59° Northeast  Level Estimated
Tue 08:22:00 AM 60.1599 24.4283 59° Northeast  Level Estimated
Tue 08:23:00 AM 60.2231 24.6417 59° Northeast  Level Estimated
Tue 08:24:00 AM 60.2859 24.8558 59° Northeast  Level Estimated
Tue 08:25:00 AM 60.3172 24.9633 59° Northeast  Level Estimated
Tue 08:26:00 AM 60.3172 24.9633 37° Northeast  Level Estimated
Tue 08:27:00 AM 60.3172 24.9633 37° Northeast  Level Estimated
Tue 08:28:00 AM 60.3172 24.9633 37° Northeast  Level Estimated
Tue 08:29:00 AM 60.3172 24.9633 37° Northeast  Level Estimated
Tue 08:30:00 AM 60.3172 24.9633 37° Northeast  Level Estimated
Tue 08:31:00 AM 60.3172 24.9633 37° Northeast  Level Estimated
Tue 08:32:00 AM 60.3172 24.9633 37° Northeast  Level Estimated
Tue 08:33:00 AM 60.3172 24.9633 37° Northeast  Level Estimated
Tue 08:34:00 AM 60.3172 24.9633 37° Northeast  Level Estimated

Login

Don't have an account? Register now (free) for customized features, flight alerts, and more!